sensor_id;sensor_type;location;lat;lon;timestamp;P1;durP1;ratioP1;P2;durP2;ratioP2
35745;SDS011;21870;42.812;74.628;2023-10-09T00:02:11;11.85;;;7.40;;
35745;SDS011;21870;42.812;74.628;2023-10-09T00:04:39;19.63;;;7.65;;
35745;SDS011;21870;42.812;74.628;2023-10-09T00:07:08;19.98;;;8.32;;
35745;SDS011;21870;42.812;74.628;2023-10-09T00:09:35;17.45;;;7.70;;
35745;SDS011;21870;42.812;74.628;2023-10-09T00:12:27;18.23;;;7.05;;
35745;SDS011;21870;42.812;74.628;2023-10-09T00:14:53;14.90;;;7.20;;
35745;SDS011;21870;42.812;74.628;2023-10-09T00:17:32;15.93;;;7.13;;
35745;SDS011;21870;42.812;74.628;2023-10-09T00:19:58;17.52;;;7.30;;
35745;SDS011;21870;42.812;74.628;2023-10-09T00:22:42;10.35;;;6.60;;
35745;SDS011;21870;42.812;74.628;2023-10-09T00:25:11;14.35;;;6.65;;
35745;SDS011;21870;42.812;74.628;2023-10-09T00:30:08;14.75;;;6.88;;
35745;SDS011;21870;42.812;74.628;2023-10-09T00:32:43;13.75;;;6.68;;
35745;SDS011;21870;42.812;74.628;2023-10-09T00:35:18;16.85;;;7.70;;
35745;SDS011;21870;42.812;74.628;2023-10-09T00:38:12;15.45;;;7.70;;
35745;SDS011;21870;42.812;74.628;2023-10-09T00:40:49;13.82;;;6.90;;
35745;SDS011;21870;42.812;74.628;2023-10-09T00:43:27;11.27;;;6.47;;
35745;SDS011;21870;42.812;74.628;2023-10-09T00:45:55;15.98;;;6.50;;
35745;SDS011;21870;42.812;74.628;2023-10-09T00:48:34;14.27;;;6.50;;
35745;SDS011;21870;42.812;74.628;2023-10-09T00:51:05;8.27;;;5.93;;
35745;SDS011;21870;42.812;74.628;2023-10-09T00:53:45;13.55;;;6.80;;
35745;SDS011;21870;42.812;74.628;2023-10-09T00:56:21;22.60;;;7.38;;
35745;SDS011;21870;42.812;74.628;2023-10-09T00:58:57;14.63;;;7.10;;
35745;SDS011;21870;42.812;74.628;2023-10-09T01:01:35;12.52;;;6.82;;
35745;SDS011;21870;42.812;74.628;2023-10-09T01:04:06;12.68;;;6.18;;
35745;SDS011;21870;42.812;74.628;2023-10-09T01:06:43;25.23;;;7.53;;
35745;SDS011;21870;42.812;74.628;2023-10-09T01:09:11;15.68;;;8.60;;
35745;SDS011;21870;42.812;74.628;2023-10-09T01:11:39;18.27;;;7.88;;
35745;SDS011;21870;42.812;74.628;2023-10-09T01:14:29;15.88;;;6.90;;
35745;SDS011;21870;42.812;74.628;2023-10-09T01:16:56;15.98;;;7.05;;
35745;SDS011;21870;42.812;74.628;2023-10-09T01:19:23;12.88;;;6.13;;
35745;SDS011;21870;42.812;74.628;2023-10-09T01:21:50;10.88;;;6.05;;
35745;SDS011;21870;42.812;74.628;2023-10-09T01:24:16;14.30;;;6.10;;
35745;SDS011;21870;42.812;74.628;2023-10-09T01:26:43;12.75;;;5.93;;
35745;SDS011;21870;42.812;74.628;2023-10-09T01:29:10;8.40;;;5.55;;
35745;SDS011;21870;42.812;74.628;2023-10-09T01:31:40;8.88;;;4.90;;
35745;SDS011;21870;42.812;74.628;2023-10-09T01:34:33;14.65;;;5.60;;
35745;SDS011;21870;42.812;74.628;2023-10-09T01:37:19;15.68;;;5.50;;
35745;SDS011;21870;42.812;74.628;2023-10-09T01:39:54;15.15;;;6.90;;
35745;SDS011;21870;42.812;74.628;2023-10-09T01:42:40;10.80;;;5.85;;
35745;SDS011;21870;42.812;74.628;2023-10-09T01:45:12;12.68;;;6.53;;
35745;SDS011;21870;42.812;74.628;2023-10-09T01:47:45;12.80;;;6.70;;
35745;SDS011;21870;42.812;74.628;2023-10-09T01:50:18;13.43;;;7.18;;
35745;SDS011;21870;42.812;74.628;2023-10-09T01:52:47;8.88;;;5.93;;
35745;SDS011;21870;42.812;74.628;2023-10-09T01:55:13;12.85;;;6.38;;
35745;SDS011;21870;42.812;74.628;2023-10-09T01:58:00;13.50;;;5.53;;
35745;SDS011;21870;42.812;74.628;2023-10-09T02:00:48;12.80;;;5.50;;
35745;SDS011;21870;42.812;74.628;2023-10-09T02:03:19;9.88;;;5.13;;
35745;SDS011;21870;42.812;74.628;2023-10-09T02:05:49;11.55;;;4.80;;
35745;SDS011;21870;42.812;74.628;2023-10-09T02:08:17;10.55;;;4.88;;
35745;SDS011;21870;42.812;74.628;2023-10-09T02:10:47;9.30;;;5.13;;
35745;SDS011;21870;42.812;74.628;2023-10-09T02:13:14;13.48;;;5.03;;
35745;SDS011;21870;42.812;74.628;2023-10-09T02:15:42;8.07;;;4.47;;
35745;SDS011;21870;42.812;74.628;2023-10-09T02:18:12;6.53;;;4.13;;
35745;SDS011;21870;42.812;74.628;2023-10-09T02:20:52;12.82;;;4.75;;
35745;SDS011;21870;42.812;74.628;2023-10-09T02:23:37;10.32;;;4.50;;
35745;SDS011;21870;42.812;74.628;2023-10-09T02:26:09;8.15;;;3.88;;
35745;SDS011;21870;42.812;74.628;2023-10-09T02:28:43;7.07;;;3.75;;
35745;SDS011;21870;42.812;74.628;2023-10-09T02:31:17;7.65;;;3.88;;
35745;SDS011;21870;42.812;74.628;2023-10-09T02:33:47;8.52;;;4.53;;
35745;SDS011;21870;42.812;74.628;2023-10-09T02:36:18;18.65;;;4.75;;
35745;SDS011;21870;42.812;74.628;2023-10-09T02:38:44;13.85;;;4.72;;
35745;SDS011;21870;42.812;74.628;2023-10-09T02:41:16;13.15;;;4.72;;
35745;SDS011;21870;42.812;74.628;2023-10-09T02:43:42;11.48;;;4.72;;
35745;SDS011;21870;42.812;74.628;2023-10-09T02:46:12;12.02;;;4.65;;
35745;SDS011;21870;42.812;74.628;2023-10-09T02:48:43;15.85;;;5.72;;
35745;SDS011;21870;42.812;74.628;2023-10-09T02:51:18;14.07;;;5.82;;
35745;SDS011;21870;42.812;74.628;2023-10-09T02:54:08;15.73;;;5.45;;
35745;SDS011;21870;42.812;74.628;2023-10-09T02:56:47;19.15;;;5.50;;
35745;SDS011;21870;42.812;74.628;2023-10-09T02:59:21;17.05;;;5.93;;
35745;SDS011;21870;42.812;74.628;2023-10-09T03:01:47;9.98;;;4.82;;
35745;SDS011;21870;42.812;74.628;2023-10-09T03:04:14;16.17;;;4.97;;
35745;SDS011;21870;42.812;74.628;2023-10-09T03:06:40;9.55;;;4.43;;
35745;SDS011;21870;42.812;74.628;2023-10-09T03:09:19;11.90;;;4.68;;
35745;SDS011;21870;42.812;74.628;2023-10-09T03:11:56;16.77;;;5.50;;
35745;SDS011;21870;42.812;74.628;2023-10-09T03:14:31;15.43;;;5.38;;
35745;SDS011;21870;42.812;74.628;2023-10-09T03:17:00;28.52;;;7.93;;
35745;SDS011;21870;42.812;74.628;2023-10-09T03:19:27;21.70;;;7.00;;
35745;SDS011;21870;42.812;74.628;2023-10-09T03:21:55;20.73;;;7.95;;
35745;SDS011;21870;42.812;74.628;2023-10-09T03:24:25;31.55;;;7.70;;
35745;SDS011;21870;42.812;74.628;2023-10-09T03:26:52;21.52;;;6.63;;
35745;SDS011;21870;42.812;74.628;2023-10-09T03:29:21;30.65;;;7.20;;
35745;SDS011;21870;42.812;74.628;2023-10-09T03:31:48;26.75;;;7.63;;
35745;SDS011;21870;42.812;74.628;2023-10-09T03:34:16;23.17;;;7.70;;
35745;SDS011;21870;42.812;74.628;2023-10-09T03:36:43;26.45;;;7.07;;
35745;SDS011;21870;42.812;74.628;2023-10-09T03:39:13;27.60;;;6.90;;
35745;SDS011;21870;42.812;74.628;2023-10-09T03:41:58;33.08;;;6.15;;
35745;SDS011;21870;42.812;74.628;2023-10-09T03:44:24;23.45;;;6.40;;
35745;SDS011;21870;42.812;74.628;2023-10-09T03:46:54;24.27;;;6.82;;
35745;SDS011;21870;42.812;74.628;2023-10-09T03:49:20;29.55;;;7.03;;
35745;SDS011;21870;42.812;74.628;2023-10-09T03:51:51;21.77;;;6.30;;
35745;SDS011;21870;42.812;74.628;2023-10-09T03:54:17;25.63;;;6.63;;
35745;SDS011;21870;42.812;74.628;2023-10-09T03:56:48;29.58;;;7.15;;
35745;SDS011;21870;42.812;74.628;2023-10-09T03:59:16;21.88;;;6.22;;
35745;SDS011;21870;42.812;74.628;2023-10-09T04:01:45;20.38;;;6.90;;
35745;SDS011;21870;42.812;74.628;2023-10-09T04:04:16;18.65;;;5.65;;
35745;SDS011;21870;42.812;74.628;2023-10-09T04:06:42;18.92;;;6.40;;
35745;SDS011;21870;42.812;74.628;2023-10-09T04:09:11;19.77;;;6.78;;
35745;SDS011;21870;42.812;74.628;2023-10-09T04:11:54;24.73;;;7.43;;
35745;SDS011;21870;42.812;74.628;2023-10-09T04:14:38;18.58;;;6.70;;
35745;SDS011;21870;42.812;74.628;2023-10-09T04:17:22;14.40;;;6.45;;
35745;SDS011;21870;42.812;74.628;2023-10-09T04:19:55;33.53;;;7.20;;
35745;SDS011;21870;42.812;74.628;2023-10-09T04:22:40;22.65;;;5.85;;
35745;SDS011;21870;42.812;74.628;2023-10-09T04:25:35;20.48;;;7.85;;
35745;SDS011;21870;42.812;74.628;2023-10-09T04:28:08;20.98;;;5.85;;
35745;SDS011;21870;42.812;74.628;2023-10-09T04:30:38;24.38;;;6.50;;
35745;SDS011;21870;42.812;74.628;2023-10-09T04:33:24;24.90;;;6.03;;
35745;SDS011;21870;42.812;74.628;2023-10-09T04:36:15;26.25;;;6.88;;
35745;SDS011;21870;42.812;74.628;2023-10-09T04:38:46;19.08;;;6.05;;
35745;SDS011;21870;42.812;74.628;2023-10-09T04:41:38;21.02;;;6.75;;
35745;SDS011;21870;42.812;74.628;2023-10-09T04:44:07;21.65;;;6.47;;
35745;SDS011;21870;42.812;74.628;2023-10-09T04:46:43;22.20;;;6.22;;
35745;SDS011;21870;42.812;74.628;2023-10-09T04:49:10;24.65;;;6.50;;
35745;SDS011;21870;42.812;74.628;2023-10-09T04:51:57;25.58;;;6.93;;
35745;SDS011;21870;42.812;74.628;2023-10-09T04:54:43;22.33;;;6.05;;
35745;SDS011;21870;42.812;74.628;2023-10-09T04:57:28;21.00;;;6.30;;
35745;SDS011;21870;42.812;74.628;2023-10-09T04:59:54;21.95;;;6.60;;
35745;SDS011;21870;42.812;74.628;2023-10-09T05:02:26;18.20;;;7.03;;
35745;SDS011;21870;42.812;74.628;2023-10-09T05:05:01;26.08;;;7.47;;
35745;SDS011;21870;42.812;74.628;2023-10-09T05:08:03;26.90;;;7.13;;
35745;SDS011;21870;42.812;74.628;2023-10-09T05:11:00;26.52;;;5.60;;
35745;SDS011;21870;42.812;74.628;2023-10-09T05:13:28;18.40;;;6.10;;
35745;SDS011;21870;42.812;74.628;2023-10-09T05:16:04;17.40;;;6.47;;
35745;SDS011;21870;42.812;74.628;2023-10-09T05:18:30;24.85;;;6.43;;
35745;SDS011;21870;42.812;74.628;2023-10-09T05:21:02;21.08;;;6.28;;
35745;SDS011;21870;42.812;74.628;2023-10-09T05:23:46;21.50;;;6.45;;
35745;SDS011;21870;42.812;74.628;2023-10-09T05:26:36;19.17;;;6.68;;
35745;SDS011;21870;42.812;74.628;2023-10-09T05:29:23;19.10;;;6.25;;
35745;SDS011;21870;42.812;74.628;2023-10-09T05:32:05;15.10;;;6.35;;
35745;SDS011;21870;42.812;74.628;2023-10-09T05:34:38;22.13;;;6.38;;
35745;SDS011;21870;42.812;74.628;2023-10-09T05:37:23;22.60;;;7.60;;
35745;SDS011;21870;42.812;74.628;2023-10-09T05:40:00;22.50;;;7.60;;
35745;SDS011;21870;42.812;74.628;2023-10-09T05:42:28;21.52;;;6.63;;
35745;SDS011;21870;42.812;74.628;2023-10-09T05:45:08;27.92;;;7.72;;
35745;SDS011;21870;42.812;74.628;2023-10-09T05:47:44;16.02;;;5.47;;
35745;SDS011;21870;42.812;74.628;2023-10-09T05:50:30;16.90;;;5.88;;
35745;SDS011;21870;42.812;74.628;2023-10-09T05:52:56;22.05;;;6.75;;
35745;SDS011;21870;42.812;74.628;2023-10-09T05:55:32;21.95;;;5.82;;
35745;SDS011;21870;42.812;74.628;2023-10-09T05:58:16;22.50;;;5.80;;
35745;SDS011;21870;42.812;74.628;2023-10-09T06:01:01;21.73;;;6.53;;
35745;SDS011;21870;42.812;74.628;2023-10-09T06:03:45;24.55;;;6.90;;
35745;SDS011;21870;42.812;74.628;2023-10-09T06:06:19;23.30;;;6.13;;
35745;SDS011;21870;42.812;74.628;2023-10-09T06:09:04;20.17;;;5.45;;
35745;SDS011;21870;42.812;74.628;2023-10-09T06:11:43;27.33;;;6.65;;
35745;SDS011;21870;42.812;74.628;2023-10-09T06:14:22;21.42;;;6.60;;
35745;SDS011;21870;42.812;74.628;2023-10-09T06:16:54;21.00;;;5.95;;
35745;SDS011;21870;42.812;74.628;2023-10-09T06:19:39;27.33;;;6.25;;
35745;SDS011;21870;42.812;74.628;2023-10-09T06:22:08;25.90;;;7.53;;
35745;SDS011;21870;42.812;74.628;2023-10-09T06:24:55;21.08;;;7.40;;
35745;SDS011;21870;42.812;74.628;2023-10-09T06:27:22;21.77;;;7.70;;
35745;SDS011;21870;42.812;74.628;2023-10-09T06:30:11;20.45;;;6.72;;
35745;SDS011;21870;42.812;74.628;2023-10-09T06:32:44;18.92;;;7.72;;
35745;SDS011;21870;42.812;74.628;2023-10-09T06:35:23;13.18;;;5.85;;
35745;SDS011;21870;42.812;74.628;2023-10-09T06:37:56;18.73;;;5.90;;
35745;SDS011;21870;42.812;74.628;2023-10-09T06:40:32;16.58;;;5.70;;
35745;SDS011;21870;42.812;74.628;2023-10-09T06:43:02;20.17;;;6.10;;
35745;SDS011;21870;42.812;74.628;2023-10-09T06:45:40;11.35;;;5.22;;
35745;SDS011;21870;42.812;74.628;2023-10-09T06:48:09;16.25;;;6.00;;
35745;SDS011;21870;42.812;74.628;2023-10-09T06:50:55;20.27;;;7.38;;
35745;SDS011;21870;42.812;74.628;2023-10-09T06:53:46;23.75;;;6.82;;
35745;SDS011;21870;42.812;74.628;2023-10-09T06:59:00;17.48;;;6.35;;
35745;SDS011;21870;42.812;74.628;2023-10-09T07:01:46;31.92;;;9.15;;
35745;SDS011;21870;42.812;74.628;2023-10-09T07:04:33;28.13;;;8.60;;
35745;SDS011;21870;42.812;74.628;2023-10-09T07:07:00;25.48;;;9.95;;
35745;SDS011;21870;42.812;74.628;2023-10-09T07:09:27;18.77;;;9.00;;
35745;SDS011;21870;42.812;74.628;2023-10-09T07:12:28;19.02;;;8.00;;
35745;SDS011;21870;42.812;74.628;2023-10-09T07:14:59;22.90;;;7.95;;
35745;SDS011;21870;42.812;74.628;2023-10-09T07:17:49;21.55;;;6.82;;
35745;SDS011;21870;42.812;74.628;2023-10-09T07:20:17;19.90;;;7.50;;
35745;SDS011;21870;42.812;74.628;2023-10-09T07:23:04;27.35;;;6.70;;
35745;SDS011;21870;42.812;74.628;2023-10-09T07:25:42;28.98;;;8.98;;
35745;SDS011;21870;42.812;74.628;2023-10-09T07:28:22;20.70;;;8.55;;
35745;SDS011;21870;42.812;74.628;2023-10-09T07:31:17;22.38;;;7.50;;
35745;SDS011;21870;42.812;74.628;2023-10-09T07:33:52;31.50;;;9.10;;
35745;SDS011;21870;42.812;74.628;2023-10-09T07:36:22;19.65;;;9.38;;
35745;SDS011;21870;42.812;74.628;2023-10-09T07:38:59;22.17;;;9.27;;
35745;SDS011;21870;42.812;74.628;2023-10-09T07:41:40;22.13;;;9.70;;
35745;SDS011;21870;42.812;74.628;2023-10-09T07:44:10;37.72;;;10.55;;
35745;SDS011;21870;42.812;74.628;2023-10-09T07:47:02;26.45;;;10.45;;
35745;SDS011;21870;42.812;74.628;2023-10-09T07:49:47;20.70;;;8.48;;
35745;SDS011;21870;42.812;74.628;2023-10-09T07:52:17;17.83;;;9.32;;
35745;SDS011;21870;42.812;74.628;2023-10-09T07:54:47;30.55;;;11.00;;
35745;SDS011;21870;42.812;74.628;2023-10-09T07:57:19;16.80;;;9.70;;
35745;SDS011;21870;42.812;74.628;2023-10-09T07:59:54;24.70;;;10.05;;
35745;SDS011;21870;42.812;74.628;2023-10-09T08:02:26;28.27;;;9.90;;
35745;SDS011;21870;42.812;74.628;2023-10-09T08:04:59;23.60;;;9.48;;
35745;SDS011;21870;42.812;74.628;2023-10-09T08:07:30;28.23;;;10.30;;
35745;SDS011;21870;42.812;74.628;2023-10-09T08:10:07;20.30;;;9.88;;
35745;SDS011;21870;42.812;74.628;2023-10-09T08:12:42;33.90;;;11.10;;
35745;SDS011;21870;42.812;74.628;2023-10-09T08:15:15;32.72;;;11.35;;
35745;SDS011;21870;42.812;74.628;2023-10-09T08:17:46;25.08;;;11.48;;
35745;SDS011;21870;42.812;74.628;2023-10-09T08:20:23;24.48;;;11.23;;
35745;SDS011;21870;42.812;74.628;2023-10-09T08:22:53;25.38;;;10.70;;
35745;SDS011;21870;42.812;74.628;2023-10-09T08:25:23;20.48;;;11.10;;
35745;SDS011;21870;42.812;74.628;2023-10-09T08:27:57;30.20;;;12.05;;
35745;SDS011;21870;42.812;74.628;2023-10-09T08:30:44;21.10;;;11.15;;
35745;SDS011;21870;42.812;74.628;2023-10-09T08:33:20;24.88;;;11.63;;
35745;SDS011;21870;42.812;74.628;2023-10-09T08:35:54;25.58;;;11.50;;
35745;SDS011;21870;42.812;74.628;2023-10-09T08:38:29;24.27;;;9.98;;
35745;SDS011;21870;42.812;74.628;2023-10-09T08:41:11;36.38;;;13.38;;
35745;SDS011;21870;42.812;74.628;2023-10-09T08:43:49;24.45;;;10.38;;
35745;SDS011;21870;42.812;74.628;2023-10-09T08:46:20;28.15;;;10.93;;
35745;SDS011;21870;42.812;74.628;2023-10-09T08:48:47;20.85;;;10.93;;
35745;SDS011;21870;42.812;74.628;2023-10-09T08:51:14;17.88;;;9.73;;
35745;SDS011;21870;42.812;74.628;2023-10-09T08:53:41;24.20;;;10.40;;
35745;SDS011;21870;42.812;74.628;2023-10-09T08:56:11;22.85;;;10.38;;
35745;SDS011;21870;42.812;74.628;2023-10-09T08:58:40;20.10;;;10.30;;
35745;SDS011;21870;42.812;74.628;2023-10-09T09:01:07;20.33;;;9.48;;
35745;SDS011;21870;42.812;74.628;2023-10-09T09:03:39;19.23;;;8.32;;
35745;SDS011;21870;42.812;74.628;2023-10-09T09:06:09;19.77;;;9.35;;
35745;SDS011;21870;42.812;74.628;2023-10-09T09:08:35;23.52;;;9.65;;
35745;SDS011;21870;42.812;74.628;2023-10-09T09:11:07;24.13;;;9.10;;
35745;SDS011;21870;42.812;74.628;2023-10-09T09:16:35;17.50;;;8.38;;
35745;SDS011;21870;42.812;74.628;2023-10-09T09:19:09;25.58;;;8.50;;
35745;SDS011;21870;42.812;74.628;2023-10-09T09:21:36;23.00;;;8.40;;
35745;SDS011;21870;42.812;74.628;2023-10-09T09:24:11;15.68;;;6.80;;
35745;SDS011;21870;42.812;74.628;2023-10-09T09:26:47;29.45;;;7.88;;
35745;SDS011;21870;42.812;74.628;2023-10-09T09:32:01;15.95;;;7.32;;
35745;SDS011;21870;42.812;74.628;2023-10-09T09:34:45;28.27;;;7.78;;
35745;SDS011;21870;42.812;74.628;2023-10-09T09:37:20;24.45;;;7.53;;
35745;SDS011;21870;42.812;74.628;2023-10-09T09:40:04;35.30;;;8.55;;
35745;SDS011;21870;42.812;74.628;2023-10-09T09:42:43;29.88;;;8.05;;
35745;SDS011;21870;42.812;74.628;2023-10-09T09:45:13;24.52;;;7.22;;
35745;SDS011;21870;42.812;74.628;2023-10-09T09:47:44;18.52;;;7.53;;
35745;SDS011;21870;42.812;74.628;2023-10-09T09:50:17;23.45;;;8.32;;
35745;SDS011;21870;42.812;74.628;2023-10-09T09:52:54;25.98;;;8.50;;
35745;SDS011;21870;42.812;74.628;2023-10-09T09:55:24;26.67;;;6.05;;
35745;SDS011;21870;42.812;74.628;2023-10-09T09:57:56;13.43;;;5.97;;
35745;SDS011;21870;42.812;74.628;2023-10-09T10:00:25;15.77;;;6.03;;
35745;SDS011;21870;42.812;74.628;2023-10-09T10:03:50;19.52;;;6.05;;
35745;SDS011;21870;42.812;74.628;2023-10-09T10:06:02;19.90;;;6.35;;
35745;SDS011;21870;42.812;74.628;2023-10-09T10:08:35;20.35;;;6.80;;
35745;SDS011;21870;42.812;74.628;2023-10-09T10:11:04;32.25;;;6.85;;
35745;SDS011;21870;42.812;74.628;2023-10-09T10:16:08;18.20;;;6.00;;
35745;SDS011;21870;42.812;74.628;2023-10-09T10:18:55;19.80;;;5.35;;
35745;SDS011;21870;42.812;74.628;2023-10-09T10:21:28;21.92;;;5.90;;
35745;SDS011;21870;42.812;74.628;2023-10-09T10:24:01;33.35;;;7.03;;
35745;SDS011;21870;42.812;74.628;2023-10-09T10:26:37;35.22;;;6.65;;
35745;SDS011;21870;42.812;74.628;2023-10-09T10:29:19;35.60;;;7.25;;
35745;SDS011;21870;42.812;74.628;2023-10-09T10:31:56;30.98;;;7.60;;
35745;SDS011;21870;42.812;74.628;2023-10-09T10:34:26;40.72;;;7.22;;
35745;SDS011;21870;42.812;74.628;2023-10-09T10:40:28;30.63;;;6.82;;
35745;SDS011;21870;42.812;74.628;2023-10-09T10:43:04;14.85;;;5.22;;
35745;SDS011;21870;42.812;74.628;2023-10-09T10:46:06;16.45;;;5.18;;
35745;SDS011;21870;42.812;74.628;2023-10-09T10:48:51;30.65;;;6.90;;
35745;SDS011;21870;42.812;74.628;2023-10-09T10:51:39;17.65;;;5.15;;
35745;SDS011;21870;42.812;74.628;2023-10-09T10:54:05;15.18;;;5.28;;
35745;SDS011;21870;42.812;74.628;2023-10-09T10:57:01;16.80;;;5.60;;
35745;SDS011;21870;42.812;74.628;2023-10-09T10:59:40;27.30;;;5.95;;
35745;SDS011;21870;42.812;74.628;2023-10-09T11:02:10;16.83;;;5.90;;
35745;SDS011;21870;42.812;74.628;2023-10-09T11:04:37;29.30;;;6.50;;
35745;SDS011;21870;42.812;74.628;2023-10-09T11:07:06;77.78;;;10.55;;
35745;SDS011;21870;42.812;74.628;2023-10-09T11:09:47;36.65;;;6.00;;
35745;SDS011;21870;42.812;74.628;2023-10-09T11:12:50;77.43;;;11.48;;
35745;SDS011;21870;42.812;74.628;2023-10-09T11:15:16;37.45;;;7.25;;
35745;SDS011;21870;42.812;74.628;2023-10-09T11:20:33;23.52;;;6.05;;
35745;SDS011;21870;42.812;74.628;2023-10-09T11:23:01;23.83;;;6.75;;
35745;SDS011;21870;42.812;74.628;2023-10-09T11:25:51;30.55;;;6.82;;
35745;SDS011;21870;42.812;74.628;2023-10-09T11:28:21;36.17;;;6.43;;
35745;SDS011;21870;42.812;74.628;2023-10-09T11:31:07;39.58;;;8.30;;
35745;SDS011;21870;42.812;74.628;2023-10-09T11:33:47;46.90;;;8.15;;
35745;SDS011;21870;42.812;74.628;2023-10-09T11:36:17;30.38;;;7.07;;
35745;SDS011;21870;42.812;74.628;2023-10-09T11:38:58;29.90;;;7.13;;
35745;SDS011;21870;42.812;74.628;2023-10-09T11:41:43;25.88;;;6.30;;
35745;SDS011;21870;42.812;74.628;2023-10-09T11:44:15;24.08;;;6.47;;
35745;SDS011;21870;42.812;74.628;2023-10-09T11:46:59;21.73;;;6.28;;
35745;SDS011;21870;42.812;74.628;2023-10-09T11:49:51;26.08;;;6.63;;
35745;SDS011;21870;42.812;74.628;2023-10-09T11:52:27;22.83;;;6.13;;
35745;SDS011;21870;42.812;74.628;2023-10-09T11:55:01;29.92;;;6.95;;
35745;SDS011;21870;42.812;74.628;2023-10-09T11:57:28;33.15;;;8.63;;
35745;SDS011;21870;42.812;74.628;2023-10-09T11:59:59;41.47;;;9.35;;
35745;SDS011;21870;42.812;74.628;2023-10-09T12:02:26;82.78;;;12.98;;
35745;SDS011;21870;42.812;74.628;2023-10-09T12:04:53;35.92;;;10.20;;
35745;SDS011;21870;42.812;74.628;2023-10-09T12:07:23;32.60;;;7.75;;
35745;SDS011;21870;42.812;74.628;2023-10-09T12:09:50;25.55;;;7.53;;
35745;SDS011;21870;42.812;74.628;2023-10-09T12:12:21;35.15;;;8.65;;
35745;SDS011;21870;42.812;74.628;2023-10-09T12:14:51;35.78;;;8.32;;
35745;SDS011;21870;42.812;74.628;2023-10-09T12:17:18;28.27;;;7.75;;
35745;SDS011;21870;42.812;74.628;2023-10-09T12:19:44;40.40;;;9.52;;
35745;SDS011;21870;42.812;74.628;2023-10-09T12:22:12;44.28;;;9.27;;
35745;SDS011;21870;42.812;74.628;2023-10-09T12:24:41;19.77;;;7.38;;
35745;SDS011;21870;42.812;74.628;2023-10-09T12:27:08;27.33;;;7.82;;
35745;SDS011;21870;42.812;74.628;2023-10-09T12:29:37;24.90;;;7.60;;
35745;SDS011;21870;42.812;74.628;2023-10-09T12:32:10;35.90;;;9.80;;
35745;SDS011;21870;42.812;74.628;2023-10-09T12:34:36;29.60;;;9.38;;
35745;SDS011;21870;42.812;74.628;2023-10-09T12:37:03;37.47;;;9.40;;
35745;SDS011;21870;42.812;74.628;2023-10-09T12:39:31;36.03;;;9.80;;
35745;SDS011;21870;42.812;74.628;2023-10-09T12:42:05;32.83;;;10.43;;
35745;SDS011;21870;42.812;74.628;2023-10-09T12:44:34;18.85;;;9.43;;
35745;SDS011;21870;42.812;74.628;2023-10-09T12:47:07;26.30;;;10.02;;
35745;SDS011;21870;42.812;74.628;2023-10-09T12:49:36;33.33;;;12.20;;
35745;SDS011;21870;42.812;74.628;2023-10-09T12:52:09;27.20;;;14.57;;
35745;SDS011;21870;42.812;74.628;2023-10-09T12:54:44;26.85;;;13.30;;
35745;SDS011;21870;42.812;74.628;2023-10-09T12:57:13;24.23;;;11.05;;
35745;SDS011;21870;42.812;74.628;2023-10-09T12:59:40;27.15;;;10.05;;
35745;SDS011;21870;42.812;74.628;2023-10-09T13:02:16;16.73;;;9.02;;
35745;SDS011;21870;42.812;74.628;2023-10-09T13:04:55;24.85;;;7.97;;
35745;SDS011;21870;42.812;74.628;2023-10-09T13:07:21;23.80;;;8.75;;
35745;SDS011;21870;42.812;74.628;2023-10-09T13:09:48;28.00;;;7.78;;
35745;SDS011;21870;42.812;74.628;2023-10-09T13:12:32;21.90;;;7.30;;
35745;SDS011;21870;42.812;74.628;2023-10-09T13:15:04;24.13;;;7.80;;
35745;SDS011;21870;42.812;74.628;2023-10-09T13:17:35;19.08;;;7.25;;
35745;SDS011;21870;42.812;74.628;2023-10-09T13:20:02;31.73;;;7.05;;
35745;SDS011;21870;42.812;74.628;2023-10-09T13:22:44;22.52;;;8.35;;
35745;SDS011;21870;42.812;74.628;2023-10-09T13:25:13;20.75;;;8.05;;
35745;SDS011;21870;42.812;74.628;2023-10-09T13:27:42;24.90;;;10.25;;
35745;SDS011;21870;42.812;74.628;2023-10-09T13:30:18;29.05;;;11.05;;
35745;SDS011;21870;42.812;74.628;2023-10-09T13:32:51;22.20;;;12.32;;
35745;SDS011;21870;42.812;74.628;2023-10-09T13:35:18;27.05;;;11.75;;
35745;SDS011;21870;42.812;74.628;2023-10-09T13:37:45;32.60;;;12.95;;
35745;SDS011;21870;42.812;74.628;2023-10-09T13:40:20;26.70;;;11.27;;
35745;SDS011;21870;42.812;74.628;2023-10-09T13:42:54;22.40;;;10.35;;
35745;SDS011;21870;42.812;74.628;2023-10-09T13:45:27;23.83;;;9.95;;
35745;SDS011;21870;42.812;74.628;2023-10-09T13:47:54;21.50;;;10.60;;
35745;SDS011;21870;42.812;74.628;2023-10-09T13:50:24;21.30;;;10.48;;
35745;SDS011;21870;42.812;74.628;2023-10-09T13:52:57;27.00;;;12.18;;
35745;SDS011;21870;42.812;74.628;2023-10-09T13:55:23;32.55;;;12.18;;
35745;SDS011;21870;42.812;74.628;2023-10-09T13:57:59;24.65;;;10.45;;
35745;SDS011;21870;42.812;74.628;2023-10-09T14:00:25;22.67;;;10.80;;
35745;SDS011;21870;42.812;74.628;2023-10-09T14:03:07;23.33;;;11.20;;
35745;SDS011;21870;42.812;74.628;2023-10-09T14:05:44;27.10;;;10.27;;
35745;SDS011;21870;42.812;74.628;2023-10-09T14:08:22;25.45;;;10.65;;
35745;SDS011;21870;42.812;74.628;2023-10-09T14:10:50;20.02;;;10.65;;
35745;SDS011;21870;42.812;74.628;2023-10-09T14:13:16;22.98;;;9.95;;
35745;SDS011;21870;42.812;74.628;2023-10-09T14:15:51;23.15;;;10.80;;
35745;SDS011;21870;42.812;74.628;2023-10-09T14:18:19;22.75;;;9.88;;
35745;SDS011;21870;42.812;74.628;2023-10-09T14:20:46;20.98;;;10.68;;
35745;SDS011;21870;42.812;74.628;2023-10-09T14:23:12;18.35;;;9.60;;
35745;SDS011;21870;42.812;74.628;2023-10-09T14:25:45;20.15;;;9.77;;
35745;SDS011;21870;42.812;74.628;2023-10-09T14:28:15;20.85;;;9.95;;
35745;SDS011;21870;42.812;74.628;2023-10-09T14:30:44;24.23;;;9.13;;
35745;SDS011;21870;42.812;74.628;2023-10-09T14:33:14;15.40;;;8.57;;
35745;SDS011;21870;42.812;74.628;2023-10-09T14:35:48;20.20;;;8.18;;
35745;SDS011;21870;42.812;74.628;2023-10-09T14:38:15;16.35;;;8.20;;
35745;SDS011;21870;42.812;74.628;2023-10-09T14:40:41;13.40;;;8.00;;
35745;SDS011;21870;42.812;74.628;2023-10-09T14:43:09;27.90;;;8.40;;
35745;SDS011;21870;42.812;74.628;2023-10-09T14:45:44;16.38;;;8.38;;
35745;SDS011;21870;42.812;74.628;2023-10-09T14:48:16;22.73;;;8.55;;
35745;SDS011;21870;42.812;74.628;2023-10-09T14:50:51;18.75;;;8.85;;
35745;SDS011;21870;42.812;74.628;2023-10-09T14:53:18;16.75;;;9.57;;
35745;SDS011;21870;42.812;74.628;2023-10-09T14:55:46;25.42;;;10.40;;
35745;SDS011;21870;42.812;74.628;2023-10-09T14:58:13;22.88;;;11.85;;
35745;SDS011;21870;42.812;74.628;2023-10-09T15:00:40;22.67;;;12.80;;
35745;SDS011;21870;42.812;74.628;2023-10-09T15:03:14;25.33;;;14.80;;
35745;SDS011;21870;42.812;74.628;2023-10-09T15:05:41;27.52;;;14.57;;
35745;SDS011;21870;42.812;74.628;2023-10-09T15:08:07;33.47;;;14.63;;
35745;SDS011;21870;42.812;74.628;2023-10-09T15:10:46;25.40;;;13.75;;
35745;SDS011;21870;42.812;74.628;2023-10-09T15:13:13;32.38;;;14.98;;
35745;SDS011;21870;42.812;74.628;2023-10-09T15:15:43;37.83;;;14.27;;
35745;SDS011;21870;42.812;74.628;2023-10-09T15:18:10;40.53;;;13.77;;
35745;SDS011;21870;42.812;74.628;2023-10-09T15:20:40;29.20;;;14.18;;